Time;durP1;ratioP1;P1;durP2;ratioP2;P2;SDS_P1;SDS_P2;PMS_P1;PMS_P2;Temp;Humidity;BMP_temperature;BMP_pressure;BME280_temperature;BME280_humidity;BME280_pressure;Samples;Min_cycle;Max_cycle;Signal;HPM_P1;HPM_P2
2021/01/14 00:02:00;;;;;;;3.10;2.53;;;;;;;;;;5069610;28;20464;-72
2021/01/14 00:04:27;;;;;;;3.80;2.20;;;;;;;;;;5069378;28;20968;-72
2021/01/14 00:06:54;;;;;;;3.47;2.07;;;;;;;;;;5066853;28;20449;-73
2021/01/14 00:09:20;;;;;;;3.30;2.37;;;;;;;;;;5062006;28;20495;-72
2021/01/14 00:11:47;;;;;;;3.20;2.13;;;;;;;;;;5066435;28;20461;-73
2021/01/14 00:14:14;;;;;;;5.97;3.40;;;;;;;;;;5065040;28;20498;-73
2021/01/14 00:16:41;;;;;;;7.30;3.43;;;;;;;;;;5057251;28;20461;-72
2021/01/14 00:19:08;;;;;;;5.17;3.20;;;;;;;;;;5067733;28;20467;-72
2021/01/14 00:21:39;;;;;;;4.43;2.87;;;;;;;;;;5068323;28;20994;-73
2021/01/14 00:24:06;;;;;;;3.10;2.33;;;;;;;;;;5064671;28;20457;-72
2021/01/14 00:26:32;;;;;;;3.57;2.10;;;;;;;;;;5066840;28;20444;-72
2021/01/14 00:28:59;;;;;;;1.83;0.77;;;;;;;;;;5063888;28;20506;-72
2021/01/14 00:31:27;;;;;;;1.40;1.00;;;;;;;;;;5064548;28;20987;-73
2021/01/14 00:33:53;;;;;;;4.20;0.90;;;;;;;;;;5060795;28;20457;-73
2021/01/14 00:36:30;;;;;;;1.10;0.80;;;;;;;;;;5068805;28;20480;-72
2021/01/14 00:38:56;;;;;;;1.30;1.00;;;;;;;;;;5059375;28;20472;-73
2021/01/14 00:41:23;;;;;;;1.70;1.20;;;;;;;;;;5067117;28;20484;-72
2021/01/14 00:43:49;;;;;;;1.40;1.07;;;;;;;;;;5062162;28;20448;-72
2021/01/14 00:46:17;;;;;;;1.20;0.87;;;;;;;;;;5057112;28;20457;-71
2021/01/14 00:48:44;;;;;;;2.67;1.20;;;;;;;;;;5067508;28;20479;-72
2021/01/14 00:51:11;;;;;;;1.20;0.80;;;;;;;;;;5064842;28;20591;-71
2021/01/14 00:53:38;;;;;;;1.17;0.80;;;;;;;;;;5066613;28;20916;-71
2021/01/14 00:56:05;;;;;;;1.60;1.00;;;;;;;;;;5069777;28;20506;-72
2021/01/14 00:58:32;;;;;;;2.17;0.83;;;;;;;;;;5071299;28;21197;-71
2021/01/14 01:00:58;;;;;;;1.20;0.77;;;;;;;;;;5067068;28;20458;-70
2021/01/14 01:03:25;;;;;;;1.40;0.80;;;;;;;;;;5071017;28;20823;-71
2021/01/14 01:05:52;;;;;;;1.20;0.70;;;;;;;;;;5076041;28;20510;-71
2021/01/14 01:08:19;;;;;;;1.07;0.70;;;;;;;;;;5070839;28;20452;-70
2021/01/14 01:10:46;;;;;;;1.20;0.70;;;;;;;;;;5070552;28;20602;-71
2021/01/14 01:13:12;;;;;;;1.10;0.70;;;;;;;;;;5066609;28;20510;-70
2021/01/14 01:15:39;;;;;;;1.07;0.70;;;;;;;;;;5065034;28;20484;-70
2021/01/14 01:18:06;;;;;;;1.00;0.70;;;;;;;;;;5065899;28;20453;-71
2021/01/14 01:20:32;;;;;;;1.10;0.70;;;;;;;;;;5066261;28;20450;-71
2021/01/14 01:23:00;;;;;;;1.50;0.90;;;;;;;;;;5068848;28;20843;-71
2021/01/14 01:25:26;;;;;;;1.23;0.80;;;;;;;;;;5065986;28;20821;-70
2021/01/14 01:27:53;;;;;;;1.00;0.70;;;;;;;;;;5072609;28;20456;-71
2021/01/14 01:30:20;;;;;;;1.00;0.63;;;;;;;;;;5071953;28;20465;-71
2021/01/14 01:32:48;;;;;;;1.30;1.00;;;;;;;;;;5065119;28;20454;-71
2021/01/14 01:35:15;;;;;;;2.70;1.00;;;;;;;;;;5079243;28;20484;-72
2021/01/14 01:37:41;;;;;;;1.27;0.60;;;;;;;;;;5069016;28;20452;-72
2021/01/14 01:40:09;;;;;;;1.27;0.90;;;;;;;;;;5068189;28;20479;-72
2021/01/14 01:42:36;;;;;;;1.60;1.10;;;;;;;;;;5069669;28;20567;-71
2021/01/14 01:45:03;;;;;;;1.40;1.00;;;;;;;;;;5067290;28;20533;-71
2021/01/14 01:47:33;;;;;;;1.33;1.00;;;;;;;;;;5062194;28;20460;-71
2021/01/14 01:50:02;;;;;;;1.90;1.30;;;;;;;;;;5064459;28;20504;-72
2021/01/14 01:52:29;;;;;;;1.60;1.10;;;;;;;;;;5071220;28;20453;-72
2021/01/14 01:54:56;;;;;;;1.40;1.03;;;;;;;;;;5070403;28;20476;-72
2021/01/14 01:57:24;;;;;;;2.73;1.07;;;;;;;;;;5068230;28;20452;-71
2021/01/14 01:59:52;;;;;;;1.63;1.17;;;;;;;;;;5073284;28;20476;-71
2021/01/14 02:02:21;;;;;;;2.97;1.10;;;;;;;;;;5071519;28;20971;-70
2021/01/14 02:04:48;;;;;;;1.47;1.33;;;;;;;;;;5071510;28;20448;-71
2021/01/14 02:07:19;;;;;;;2.00;1.20;;;;;;;;;;5067391;28;20453;-70
2021/01/14 02:09:51;;;;;;;1.83;1.40;;;;;;;;;;5070990;28;20461;-73
2021/01/14 02:12:17;;;;;;;2.43;1.27;;;;;;;;;;5071065;28;20441;-70
2021/01/14 02:14:45;;;;;;;1.70;1.60;;;;;;;;;;5063622;28;20676;-71
2021/01/14 02:17:12;;;;;;;1.97;1.23;;;;;;;;;;5069377;28;20989;-71
2021/01/14 02:19:40;;;;;;;1.83;1.40;;;;;;;;;;5069312;28;20918;-71
2021/01/14 02:22:10;;;;;;;2.47;1.70;;;;;;;;;;5063845;28;20806;-70
2021/01/14 02:24:38;;;;;;;1.93;1.57;;;;;;;;;;5075311;28;20829;-72
2021/01/14 02:27:07;;;;;;;2.73;1.80;;;;;;;;;;5061804;28;20456;-71
2021/01/14 02:29:35;;;;;;;2.70;2.13;;;;;;;;;;5069909;28;20475;-71
2021/01/14 02:32:02;;;;;;;2.20;2.00;;;;;;;;;;5067690;28;20457;-71
2021/01/14 02:34:29;;;;;;;3.27;2.13;;;;;;;;;;5070234;28;21076;-71
2021/01/14 02:36:55;;;;;;;3.50;2.57;;;;;;;;;;5075012;28;20449;-72
2021/01/14 02:39:22;;;;;;;2.93;2.37;;;;;;;;;;5073864;28;20561;-72
2021/01/14 02:41:49;;;;;;;3.60;2.40;;;;;;;;;;5071839;28;20479;-71
2021/01/14 02:44:16;;;;;;;2.00;1.80;;;;;;;;;;5066472;28;20461;-71
2021/01/14 02:46:43;;;;;;;2.13;1.93;;;;;;;;;;5063189;28;20494;-71
2021/01/14 02:49:11;;;;;;;2.30;1.90;;;;;;;;;;5070072;28;20953;-71
2021/01/14 02:51:40;;;;;;;2.10;1.80;;;;;;;;;;5073020;28;20463;-71
2021/01/14 02:54:07;;;;;;;3.23;2.50;;;;;;;;;;5066328;28;21034;-71
2021/01/14 02:56:34;;;;;;;2.63;2.27;;;;;;;;;;5069743;28;20571;-71
2021/01/14 02:59:02;;;;;;;2.90;2.20;;;;;;;;;;5074458;28;20495;-71
2021/01/14 03:01:29;;;;;;;2.60;2.20;;;;;;;;;;5068387;28;20485;-71
2021/01/14 03:03:56;;;;;;;2.87;1.87;;;;;;;;;;5072590;28;20461;-71
2021/01/14 03:06:23;;;;;;;4.23;1.83;;;;;;;;;;5071973;28;20441;-71
2021/01/14 03:08:49;;;;;;;2.43;2.20;;;;;;;;;;5076678;28;20628;-72
2021/01/14 03:11:16;;;;;;;3.33;1.93;;;;;;;;;;5072082;28;20457;-71
2021/01/14 03:13:43;;;;;;;2.00;1.67;;;;;;;;;;5067568;28;20480;-71
2021/01/14 03:16:10;;;;;;;1.70;1.60;;;;;;;;;;5068295;28;20493;-71
2021/01/14 03:18:38;;;;;;;2.10;1.80;;;;;;;;;;5070132;28;21204;-71
2021/01/14 03:21:05;;;;;;;2.37;1.93;;;;;;;;;;5075952;28;20721;-72
2021/01/14 03:23:31;;;;;;;2.90;2.10;;;;;;;;;;5082058;28;20466;-71
2021/01/14 03:25:58;;;;;;;2.93;2.33;;;;;;;;;;5076109;28;20471;-71
2021/01/14 03:28:24;;;;;;;3.83;2.47;;;;;;;;;;5073090;28;20506;-71
2021/01/14 03:30:53;;;;;;;3.97;2.23;;;;;;;;;;5072648;28;20464;-71
2021/01/14 03:33:19;;;;;;;2.90;2.07;;;;;;;;;;5068802;28;20547;-72
2021/01/14 03:35:47;;;;;;;2.97;1.77;;;;;;;;;;5077649;28;20485;-72
2021/01/14 03:38:14;;;;;;;2.73;1.63;;;;;;;;;;5072171;28;20441;-71
2021/01/14 03:40:40;;;;;;;2.60;1.87;;;;;;;;;;5070234;28;20446;-70
2021/01/14 03:43:07;;;;;;;2.70;2.10;;;;;;;;;;5072715;28;20461;-71
2021/01/14 03:45:34;;;;;;;2.30;2.10;;;;;;;;;;5072707;28;20456;-71
2021/01/14 03:48:00;;;;;;;3.83;1.80;;;;;;;;;;5069261;28;20490;-72
2021/01/14 03:50:27;;;;;;;4.43;2.70;;;;;;;;;;5065237;28;20483;-71
2021/01/14 03:52:55;;;;;;;2.73;2.10;;;;;;;;;;5069168;28;20543;-71
2021/01/14 03:55:21;;;;;;;8.27;2.97;;;;;;;;;;5071176;28;20487;-70
2021/01/14 03:57:48;;;;;;;3.33;2.47;;;;;;;;;;5073628;28;20479;-70
2021/01/14 04:00:15;;;;;;;3.90;2.93;;;;;;;;;;5068203;28;20589;-70
2021/01/14 04:02:42;;;;;;;4.63;2.40;;;;;;;;;;5069575;28;20479;-70
2021/01/14 04:05:09;;;;;;;3.17;2.43;;;;;;;;;;5069521;28;20874;-70
2021/01/14 04:07:36;;;;;;;3.27;2.20;;;;;;;;;;5070834;28;20445;-73
2021/01/14 04:10:04;;;;;;;3.87;3.13;;;;;;;;;;5069219;28;20475;-70
2021/01/14 04:12:30;;;;;;;4.57;3.10;;;;;;;;;;5063509;28;20831;-71
2021/01/14 04:14:58;;;;;;;5.47;3.30;;;;;;;;;;5060289;28;20517;-71
2021/01/14 04:17:25;;;;;;;5.30;2.90;;;;;;;;;;5060697;28;20462;-71
2021/01/14 04:19:51;;;;;;;4.33;3.10;;;;;;;;;;5059170;28;20984;-71
2021/01/14 04:22:18;;;;;;;4.80;2.70;;;;;;;;;;5064870;28;20967;-71
2021/01/14 04:24:45;;;;;;;5.10;3.17;;;;;;;;;;5066347;28;20899;-71
2021/01/14 04:27:12;;;;;;;8.37;3.50;;;;;;;;;;5071818;28;20444;-71
2021/01/14 04:29:39;;;;;;;5.27;3.10;;;;;;;;;;5060881;28;20491;-71
2021/01/14 04:32:06;;;;;;;4.87;3.17;;;;;;;;;;5067282;28;20532;-71
2021/01/14 04:34:32;;;;;;;5.30;3.13;;;;;;;;;;5061359;28;20892;-71
2021/01/14 04:36:59;;;;;;;4.40;3.07;;;;;;;;;;5064782;28;20448;-71
2021/01/14 04:39:26;;;;;;;5.07;3.30;;;;;;;;;;5065941;28;20888;-71
2021/01/14 04:41:55;;;;;;;7.10;3.83;;;;;;;;;;5060015;28;20468;-71
2021/01/14 04:44:23;;;;;;;5.67;3.63;;;;;;;;;;5063147;28;20464;-71
2021/01/14 04:46:50;;;;;;;10.53;3.30;;;;;;;;;;5061672;28;20448;-71
2021/01/14 04:49:18;;;;;;;8.70;4.00;;;;;;;;;;5059763;28;20460;-71
2021/01/14 04:51:46;;;;;;;4.27;3.20;;;;;;;;;;5064310;28;20449;-71
2021/01/14 04:54:14;;;;;;;6.00;3.47;;;;;;;;;;5059782;28;21205;-71
2021/01/14 04:56:41;;;;;;;11.03;4.37;;;;;;;;;;5069854;28;20545;-71
2021/01/14 04:59:08;;;;;;;9.10;4.53;;;;;;;;;;5069737;28;20474;-71
2021/01/14 05:01:42;;;;;;;9.37;4.03;;;;;;;;;;5060625;28;20549;-72
2021/01/14 05:04:10;;;;;;;5.10;3.70;;;;;;;;;;5054241;28;20743;-72
2021/01/14 05:06:39;;;;;;;7.50;3.47;;;;;;;;;;5063878;28;20449;-72
2021/01/14 05:09:07;;;;;;;6.30;4.10;;;;;;;;;;5059844;28;20471;-71
2021/01/14 05:11:38;;;;;;;6.53;4.17;;;;;;;;;;5064387;28;20498;-71
2021/01/14 05:14:04;;;;;;;7.07;4.60;;;;;;;;;;5061695;28;20463;-72
2021/01/14 05:16:31;;;;;;;6.20;4.43;;;;;;;;;;5059128;28;20472;-72
2021/01/14 05:18:59;;;;;;;4.33;3.80;;;;;;;;;;5064563;28;20482;-72
2021/01/14 05:21:31;;;;;;;6.40;3.40;;;;;;;;;;5061924;28;20444;-72
2021/01/14 05:24:13;;;;;;;5.23;3.63;;;;;;;;;;5063049;28;20489;-72
2021/01/14 05:26:40;;;;;;;8.20;3.60;;;;;;;;;;5065827;28;20461;-72
2021/01/14 05:29:17;;;;;;;5.67;3.40;;;;;;;;;;5057780;28;20466;-72
2021/01/14 05:31:44;;;;;;;3.90;3.27;;;;;;;;;;5066439;28;20912;-71
2021/01/14 05:34:11;;;;;;;4.30;3.40;;;;;;;;;;5060912;28;20466;-72
2021/01/14 05:36:54;;;;;;;3.33;2.97;;;;;;;;;;5064453;28;20916;-72
2021/01/14 05:39:22;;;;;;;4.27;3.63;;;;;;;;;;5063363;28;20564;-71
2021/01/14 05:41:49;;;;;;;8.07;3.60;;;;;;;;;;5059664;28;20456;-71
2021/01/14 05:44:15;;;;;;;5.30;3.30;;;;;;;;;;5069006;28;20583;-71
2021/01/14 05:46:42;;;;;;;3.37;2.87;;;;;;;;;;5065313;28;20815;-71
2021/01/14 05:49:09;;;;;;;4.90;3.00;;;;;;;;;;5065426;28;20596;-72
2021/01/14 05:51:37;;;;;;;4.10;3.20;;;;;;;;;;5068364;28;20457;-71
2021/01/14 05:54:05;;;;;;;4.53;2.80;;;;;;;;;;5064629;28;20471;-71
2021/01/14 05:56:35;;;;;;;4.83;3.20;;;;;;;;;;5064121;28;20517;-73
2021/01/14 05:59:02;;;;;;;5.10;3.90;;;;;;;;;;5068786;28;20475;-74
2021/01/14 06:01:29;;;;;;;3.23;2.67;;;;;;;;;;5066869;28;20552;-69
2021/01/14 06:03:56;;;;;;;5.50;3.20;;;;;;;;;;5058005;28;20469;-70
2021/01/14 06:06:22;;;;;;;5.00;3.30;;;;;;;;;;5063312;28;20433;-74
2021/01/14 06:08:50;;;;;;;3.57;3.03;;;;;;;;;;5063246;28;20464;-74
2021/01/14 06:11:20;;;;;;;4.30;3.30;;;;;;;;;;5061585;28;20973;-75
2021/01/14 06:13:47;;;;;;;6.17;3.23;;;;;;;;;;5059617;28;20628;-74
2021/01/14 06:16:14;;;;;;;6.03;3.33;;;;;;;;;;5058880;28;20587;-73
2021/01/14 06:18:40;;;;;;;7.93;3.43;;;;;;;;;;5059430;28;20477;-75
2021/01/14 06:21:07;;;;;;;4.60;3.60;;;;;;;;;;5060426;28;20464;-73
2021/01/14 06:23:46;;;;;;;4.30;3.20;;;;;;;;;;5058653;28;20479;-73
2021/01/14 06:26:26;;;;;;;5.77;3.83;;;;;;;;;;5054922;28;20460;-74
2021/01/14 06:28:53;;;;;;;6.77;4.13;;;;;;;;;;5055182;28;20477;-73
2021/01/14 06:31:25;;;;;;;10.60;4.10;;;;;;;;;;5061585;28;20460;-73
2021/01/14 06:33:53;;;;;;;7.63;4.10;;;;;;;;;;5069507;28;20510;-73
2021/01/14 06:36:20;;;;;;;9.87;4.07;;;;;;;;;;5061565;28;20510;-73
2021/01/14 06:38:47;;;;;;;4.87;3.70;;;;;;;;;;5059481;28;21082;-74
2021/01/14 06:41:16;;;;;;;4.97;3.23;;;;;;;;;;5063376;28;21086;-72
2021/01/14 06:43:43;;;;;;;7.27;4.13;;;;;;;;;;5060982;28;20457;-71
2021/01/14 06:46:20;;;;;;;5.43;4.00;;;;;;;;;;5059355;28;21144;-69
2021/01/14 06:49:00;;;;;;;6.07;3.90;;;;;;;;;;5060825;28;21019;-70
2021/01/14 06:51:31;;;;;;;5.00;3.97;;;;;;;;;;5063334;28;20445;-71
2021/01/14 06:54:02;;;;;;;7.43;4.00;;;;;;;;;;5063621;28;20456;-71
2021/01/14 06:56:35;;;;;;;6.33;3.70;;;;;;;;;;5059351;28;20584;-71
2021/01/14 06:59:03;;;;;;;3.37;2.90;;;;;;;;;;5080368;28;20467;-71
2021/01/14 07:01:29;;;;;;;8.10;3.93;;;;;;;;;;5066645;28;20520;-71
2021/01/14 07:03:57;;;;;;;6.50;4.50;;;;;;;;;;5063285;28;20599;-71
2021/01/14 07:06:27;;;;;;;10.50;3.97;;;;;;;;;;5073352;28;20451;-73
2021/01/14 07:09:02;;;;;;;9.23;6.00;;;;;;;;;;5071350;28;20519;-71
2021/01/14 07:11:33;;;;;;;9.77;3.73;;;;;;;;;;5066674;28;20502;-74
2021/01/14 07:14:11;;;;;;;6.40;4.07;;;;;;;;;;5066927;28;20500;-72
2021/01/14 07:16:41;;;;;;;4.30;3.77;;;;;;;;;;5059300;28;20476;-72
2021/01/14 07:19:08;;;;;;;5.70;4.37;;;;;;;;;;5063954;28;20484;-74
2021/01/14 07:21:35;;;;;;;4.90;3.97;;;;;;;;;;5069992;28;20872;-73
2021/01/14 07:24:06;;;;;;;7.63;4.70;;;;;;;;;;5068978;28;20464;-73
2021/01/14 07:26:34;;;;;;;8.93;5.80;;;;;;;;;;5069135;28;21018;-72
2021/01/14 07:29:04;;;;;;;5.60;4.73;;;;;;;;;;5069746;28;20465;-72
2021/01/14 07:31:31;;;;;;;8.27;4.70;;;;;;;;;;5065571;28;20460;-75
2021/01/14 07:33:57;;;;;;;6.37;4.63;;;;;;;;;;5066491;28;20457;-73
2021/01/14 07:36:25;;;;;;;7.13;4.30;;;;;;;;;;5068102;28;20552;-74
2021/01/14 07:38:52;;;;;;;8.67;5.37;;;;;;;;;;5064793;28;20548;-72
2021/01/14 07:41:19;;;;;;;8.83;4.80;;;;;;;;;;5067420;28;20480;-71
2021/01/14 07:43:46;;;;;;;8.00;4.93;;;;;;;;;;5067968;28;20465;-72
2021/01/14 07:46:14;;;;;;;9.03;5.23;;;;;;;;;;5064894;28;20863;-73
2021/01/14 07:48:41;;;;;;;7.53;4.57;;;;;;;;;;5068469;28;20538;-72
2021/01/14 07:51:07;;;;;;;9.40;4.70;;;;;;;;;;5060193;28;20461;-73
2021/01/14 07:53:34;;;;;;;6.80;4.40;;;;;;;;;;5058549;28;20464;-73
2021/01/14 07:56:15;;;;;;;5.50;4.37;;;;;;;;;;5065845;28;20483;-72
2021/01/14 07:58:45;;;;;;;9.50;5.77;;;;;;;;;;5067578;28;20465;-73
2021/01/14 08:01:12;;;;;;;6.67;4.30;;;;;;;;;;5068021;28;20465;-73
2021/01/14 08:03:40;;;;;;;9.67;4.70;;;;;;;;;;5071597;28;20714;-73
2021/01/14 08:06:17;;;;;;;10.77;5.00;;;;;;;;;;5073710;28;20858;-71
2021/01/14 08:08:55;;;;;;;8.60;4.53;;;;;;;;;;5061469;28;20477;-72
2021/01/14 08:11:23;;;;;;;6.63;4.47;;;;;;;;;;5069938;28;20521;-73
2021/01/14 08:14:08;;;;;;;4.77;4.10;;;;;;;;;;5063747;28;20535;-73
2021/01/14 08:16:36;;;;;;;9.13;5.07;;;;;;;;;;5063604;28;20495;-72
2021/01/14 08:19:14;;;;;;;7.07;4.40;;;;;;;;;;5064704;28;20495;-73
2021/01/14 08:21:41;;;;;;;7.57;4.53;;;;;;;;;;5062909;28;20463;-73
2021/01/14 08:24:08;;;;;;;6.50;4.70;;;;;;;;;;5068351;28;20472;-72
2021/01/14 08:26:49;;;;;;;6.63;5.00;;;;;;;;;;5069341;28;20457;-73
2021/01/14 08:29:28;;;;;;;8.73;4.37;;;;;;;;;;5065358;28;20473;-73
2021/01/14 08:31:54;;;;;;;9.20;4.67;;;;;;;;;;5067255;28;20836;-72
2021/01/14 08:34:23;;;;;;;5.63;4.33;;;;;;;;;;5070984;28;20453;-75
2021/01/14 08:36:50;;;;;;;7.97;4.33;;;;;;;;;;5069656;28;20505;-73
2021/01/14 08:39:19;;;;;;;8.13;4.17;;;;;;;;;;5068699;28;20469;-72
2021/01/14 08:41:45;;;;;;;8.13;3.70;;;;;;;;;;5073262;28;20950;-72
2021/01/14 08:44:12;;;;;;;5.07;4.13;;;;;;;;;;5070143;28;20453;-72
2021/01/14 08:46:39;;;;;;;6.63;4.43;;;;;;;;;;5068322;28;20994;-72
2021/01/14 08:49:12;;;;;;;8.27;4.47;;;;;;;;;;5073631;28;20467;-72
2021/01/14 08:51:40;;;;;;;11.70;5.20;;;;;;;;;;5067292;28;20444;-71
2021/01/14 08:54:07;;;;;;;7.40;5.43;;;;;;;;;;5073355;28;20823;-71
2021/01/14 08:56:33;;;;;;;7.03;4.10;;;;;;;;;;5068220;28;20510;-72
2021/01/14 08:59:04;;;;;;;8.00;4.60;;;;;;;;;;5065583;28;20995;-72
2021/01/14 09:01:32;;;;;;;7.93;4.53;;;;;;;;;;5064807;28;20453;-71
2021/01/14 09:03:59;;;;;;;4.10;3.17;;;;;;;;;;5055321;28;20562;-72
2021/01/14 09:06:29;;;;;;;4.67;3.07;;;;;;;;;;5057837;28;20441;-72
2021/01/14 09:08:59;;;;;;;6.93;3.63;;;;;;;;;;5066799;28;20480;-74
2021/01/14 09:11:25;;;;;;;8.90;3.60;;;;;;;;;;5065665;28;20564;-72
2021/01/14 09:14:00;;;;;;;6.10;4.00;;;;;;;;;;5068538;28;20457;-73
2021/01/14 09:16:27;;;;;;;9.73;3.90;;;;;;;;;;5064027;28;20519;-72
2021/01/14 09:18:53;;;;;;;5.57;3.43;;;;;;;;;;5067451;28;20465;-74
2021/01/14 09:21:20;;;;;;;9.53;4.60;;;;;;;;;;5084646;28;20456;-74
2021/01/14 09:23:47;;;;;;;12.53;4.87;;;;;;;;;;5078038;28;20453;-73
2021/01/14 09:26:15;;;;;;;5.97;3.67;;;;;;;;;;5080272;28;20441;-73
2021/01/14 09:28:42;;;;;;;8.37;4.90;;;;;;;;;;5073059;28;21077;-73
2021/01/14 09:31:09;;;;;;;5.70;3.70;;;;;;;;;;5067907;28;20456;-72
2021/01/14 09:33:37;;;;;;;9.13;4.60;;;;;;;;;;5073030;28;20510;-72
2021/01/14 09:36:05;;;;;;;7.63;4.87;;;;;;;;;;5067946;28;20936;-73
2021/01/14 09:38:38;;;;;;;6.10;4.30;;;;;;;;;;5065880;28;20508;-73
2021/01/14 09:41:04;;;;;;;4.50;3.20;;;;;;;;;;5070989;28;20460;-72
2021/01/14 09:43:32;;;;;;;4.33;2.87;;;;;;;;;;5067906;28;20461;-72
2021/01/14 09:45:59;;;;;;;3.93;2.80;;;;;;;;;;5074810;28;20459;-73
2021/01/14 09:48:26;;;;;;;3.23;2.67;;;;;;;;;;5070236;28;20464;-73
2021/01/14 09:50:52;;;;;;;7.03;3.13;;;;;;;;;;5077396;28;20555;-72
2021/01/14 09:53:19;;;;;;;5.03;2.80;;;;;;;;;;5071614;28;20456;-72
2021/01/14 09:55:46;;;;;;;2.17;1.97;;;;;;;;;;5069643;28;20489;-73
2021/01/14 09:58:18;;;;;;;4.13;3.33;;;;;;;;;;5071565;28;20528;-73
2021/01/14 10:00:46;;;;;;;2.83;2.30;;;;;;;;;;5070826;28;20553;-73
2021/01/14 10:03:13;;;;;;;5.20;2.27;;;;;;;;;;5078760;28;20449;-74
2021/01/14 10:05:41;;;;;;;3.50;2.37;;;;;;;;;;5079400;28;20447;-75
2021/01/14 10:08:15;;;;;;;3.90;2.40;;;;;;;;;;5076344;28;20487;-74
2021/01/14 10:10:42;;;;;;;2.50;2.30;;;;;;;;;;5083408;28;20510;-75
2021/01/14 10:13:13;;;;;;;2.20;1.90;;;;;;;;;;5073874;28;20467;-73
2021/01/14 10:15:40;;;;;;;3.73;2.10;;;;;;;;;;5069438;28;20515;-74
2021/01/14 10:18:08;;;;;;;3.13;2.20;;;;;;;;;;5083427;28;20440;-73
2021/01/14 10:20:34;;;;;;;2.93;2.20;;;;;;;;;;5076119;28;20503;-74
2021/01/14 10:23:01;;;;;;;3.83;2.27;;;;;;;;;;5079643;28;20458;-73
2021/01/14 10:25:27;;;;;;;3.20;2.90;;;;;;;;;;5078682;28;20536;-75
2021/01/14 10:28:00;;;;;;;2.87;2.20;;;;;;;;;;5073055;28;20545;-73
2021/01/14 10:30:27;;;;;;;2.97;2.07;;;;;;;;;;5080755;28;20489;-74
2021/01/14 10:33:01;;;;;;;2.97;2.33;;;;;;;;;;5082970;28;20485;-74
2021/01/14 10:35:29;;;;;;;3.97;2.37;;;;;;;;;;5080120;28;20468;-74
2021/01/14 10:38:02;;;;;;;5.13;2.20;;;;;;;;;;5076237;28;20475;-74
2021/01/14 10:40:33;;;;;;;2.30;2.10;;;;;;;;;;5073492;28;20476;-73
2021/01/14 10:43:01;;;;;;;5.33;2.00;;;;;;;;;;5080015;28;20465;-75
2021/01/14 10:45:28;;;;;;;2.90;2.20;;;;;;;;;;5073080;28;20479;-75
2021/01/14 10:48:05;;;;;;;5.47;2.30;;;;;;;;;;5074665;28;20576;-76
2021/01/14 10:50:34;;;;;;;2.60;1.90;;;;;;;;;;5077383;28;20507;-74
2021/01/14 10:53:02;;;;;;;5.23;1.73;;;;;;;;;;5083836;28;20460;-73
2021/01/14 10:55:29;;;;;;;3.90;2.73;;;;;;;;;;5083646;28;20888;-75
2021/01/14 10:57:56;;;;;;;3.40;2.70;;;;;;;;;;5072659;28;20449;-76
2021/01/14 11:00:24;;;;;;;7.77;2.93;;;;;;;;;;5063570;28;20477;-73
2021/01/14 11:03:00;;;;;;;4.10;2.43;;;;;;;;;;5075244;28;20472;-72
2021/01/14 11:05:40;;;;;;;4.17;2.67;;;;;;;;;;5064134;28;20448;-74
2021/01/14 11:08:07;;;;;;;3.30;2.00;;;;;;;;;;5073919;28;20467;-73
2021/01/14 11:10:34;;;;;;;3.73;1.90;;;;;;;;;;5070224;28;20445;-74
2021/01/14 11:13:05;;;;;;;6.60;2.57;;;;;;;;;;5072888;28;20467;-73
2021/01/14 11:15:31;;;;;;;2.73;1.90;;;;;;;;;;5074388;28;20465;-74
2021/01/14 11:18:02;;;;;;;6.73;2.77;;;;;;;;;;5077089;28;21095;-74
2021/01/14 11:20:28;;;;;;;5.53;2.33;;;;;;;;;;5078301;28;20483;-76
2021/01/14 11:22:56;;;;;;;6.87;2.50;;;;;;;;;;5076735;28;21010;-74
2021/01/14 11:25:22;;;;;;;6.73;2.83;;;;;;;;;;5076217;28;20502;-75
2021/01/14 11:27:49;;;;;;;7.90;2.93;;;;;;;;;;5083207;28;20457;-74
2021/01/14 11:30:16;;;;;;;5.83;2.70;;;;;;;;;;5071232;28;20563;-74
2021/01/14 11:32:43;;;;;;;7.90;3.50;;;;;;;;;;5068290;28;20470;-73
2021/01/14 11:35:10;;;;;;;6.83;3.10;;;;;;;;;;5070510;28;20827;-74
2021/01/14 11:37:37;;;;;;;4.67;2.70;;;;;;;;;;5080286;28;20565;-76
2021/01/14 11:40:05;;;;;;;5.50;2.70;;;;;;;;;;5081822;28;20514;-75
2021/01/14 11:42:32;;;;;;;7.60;2.90;;;;;;;;;;5085836;28;21027;-75
2021/01/14 11:44:59;;;;;;;7.20;3.10;;;;;;;;;;5084995;28;20475;-75
2021/01/14 11:47:25;;;;;;;8.00;2.93;;;;;;;;;;5076668;28;20474;-75
2021/01/14 11:49:52;;;;;;;6.57;3.50;;;;;;;;;;5080236;28;20514;-74
2021/01/14 11:52:20;;;;;;;6.47;3.40;;;;;;;;;;5082769;28;20453;-76
2021/01/14 11:54:47;;;;;;;6.17;2.90;;;;;;;;;;5081620;28;20543;-76
2021/01/14 11:57:14;;;;;;;7.17;3.23;;;;;;;;;;5084529;28;20518;-75
2021/01/14 11:59:41;;;;;;;7.67;3.20;;;;;;;;;;5080313;28;20583;-75
2021/01/14 12:02:08;;;;;;;9.33;4.00;;;;;;;;;;5072761;28;20464;-77
2021/01/14 12:04:34;;;;;;;8.30;3.87;;;;;;;;;;5089083;28;20455;-75
2021/01/14 12:07:01;;;;;;;7.20;3.47;;;;;;;;;;5077099;28;20465;-74
2021/01/14 12:09:28;;;;;;;5.53;3.10;;;;;;;;;;5079596;28;20525;-75
2021/01/14 12:11:55;;;;;;;5.87;3.07;;;;;;;;;;5077976;28;20488;-74
2021/01/14 12:14:22;;;;;;;6.40;2.90;;;;;;;;;;5075433;28;20965;-75
2021/01/14 12:16:49;;;;;;;7.23;3.77;;;;;;;;;;5084216;28;20483;-75
2021/01/14 12:19:15;;;;;;;4.00;2.80;;;;;;;;;;5079516;28;20632;-74
2021/01/14 12:21:42;;;;;;;4.53;2.67;;;;;;;;;;5086780;28;20969;-74
2021/01/14 12:24:09;;;;;;;3.20;2.20;;;;;;;;;;5079664;28;20552;-75
2021/01/14 12:26:35;;;;;;;3.87;2.10;;;;;;;;;;5081547;28;20851;-74
2021/01/14 12:29:02;;;;;;;7.67;2.50;;;;;;;;;;5080981;28;20480;-75
2021/01/14 12:31:34;;;;;;;7.90;3.60;;;;;;;;;;5082343;28;20543;-74
2021/01/14 12:34:01;;;;;;;5.10;2.73;;;;;;;;;;5076135;28;20481;-74
2021/01/14 12:36:28;;;;;;;6.47;3.60;;;;;;;;;;5080130;28;20473;-74
2021/01/14 12:38:54;;;;;;;7.30;3.70;;;;;;;;;;5071612;28;20468;-75
2021/01/14 12:41:29;;;;;;;5.60;2.70;;;;;;;;;;5081382;28;20451;-75
2021/01/14 12:43:55;;;;;;;4.20;2.40;;;;;;;;;;5078497;28;20548;-74
2021/01/14 12:46:22;;;;;;;3.13;2.27;;;;;;;;;;5078487;28;20455;-75
2021/01/14 12:48:49;;;;;;;5.13;2.47;;;;;;;;;;5083366;28;20469;-75
2021/01/14 12:51:21;;;;;;;3.40;2.30;;;;;;;;;;5082744;28;20439;-73
2021/01/14 12:53:47;;;;;;;5.97;3.27;;;;;;;;;;5084283;28;20452;-74
2021/01/14 12:56:15;;;;;;;5.60;3.20;;;;;;;;;;5084639;28;20477;-74
2021/01/14 12:58:41;;;;;;;5.70;3.10;;;;;;;;;;5077863;28;20480;-75
2021/01/14 13:01:08;;;;;;;3.20;2.50;;;;;;;;;;5078805;28;20456;-77
2021/01/14 13:03:35;;;;;;;6.27;2.97;;;;;;;;;;5078491;28;21082;-76
2021/01/14 13:06:02;;;;;;;4.90;2.90;;;;;;;;;;5084184;28;20452;-75
2021/01/14 13:08:29;;;;;;;5.10;2.73;;;;;;;;;;5081486;28;20444;-75
2021/01/14 13:10:55;;;;;;;3.47;2.53;;;;;;;;;;5074453;28;20471;-74
2021/01/14 13:13:22;;;;;;;4.17;3.17;;;;;;;;;;5071856;28;20475;-75
2021/01/14 13:15:52;;;;;;;2.87;2.10;;;;;;;;;;5073934;28;20828;-75
2021/01/14 13:18:18;;;;;;;3.83;2.70;;;;;;;;;;5079727;28;20458;-75
2021/01/14 13:20:48;;;;;;;5.80;2.73;;;;;;;;;;5076281;28;20699;-75
2021/01/14 13:23:16;;;;;;;5.60;3.33;;;;;;;;;;5070823;28;20452;-74
2021/01/14 13:25:42;;;;;;;6.67;2.83;;;;;;;;;;5077169;28;20440;-74
2021/01/14 13:28:12;;;;;;;6.13;2.07;;;;;;;;;;5071880;28;20468;-74
2021/01/14 13:30:39;;;;;;;3.70;2.70;;;;;;;;;;5068734;28;20460;-75
2021/01/14 13:33:06;;;;;;;4.37;2.63;;;;;;;;;;5074023;28;20464;-74
2021/01/14 13:35:33;;;;;;;3.10;2.17;;;;;;;;;;5074505;28;20445;-74
2021/01/14 13:38:00;;;;;;;5.07;2.53;;;;;;;;;;5067106;28;20488;-75
2021/01/14 13:40:27;;;;;;;2.67;2.00;;;;;;;;;;5074825;28;20785;-74
2021/01/14 13:42:54;;;;;;;3.27;2.37;;;;;;;;;;5072179;28;20485;-75
2021/01/14 13:45:21;;;;;;;3.23;2.57;;;;;;;;;;5071157;28;20468;-76
2021/01/14 13:47:47;;;;;;;2.93;2.40;;;;;;;;;;5076719;28;20449;-74
2021/01/14 13:50:14;;;;;;;2.57;2.37;;;;;;;;;;5074801;28;20479;-75
2021/01/14 13:52:41;;;;;;;3.00;2.70;;;;;;;;;;5070763;28;20464;-74
2021/01/14 13:55:08;;;;;;;5.33;2.70;;;;;;;;;;5064921;28;20476;-75
2021/01/14 13:57:36;;;;;;;4.77;3.17;;;;;;;;;;5074291;28;20491;-74
2021/01/14 14:00:02;;;;;;;4.33;2.50;;;;;;;;;;5077408;28;20480;-75
2021/01/14 14:02:29;;;;;;;3.63;2.43;;;;;;;;;;5071066;28;20998;-74
2021/01/14 14:04:56;;;;;;;7.50;2.50;;;;;;;;;;5078030;28;20453;-76
2021/01/14 14:07:23;;;;;;;6.80;3.00;;;;;;;;;;5079628;28;20449;-74
2021/01/14 14:09:49;;;;;;;2.63;2.37;;;;;;;;;;5068074;28;20465;-74
2021/01/14 14:12:18;;;;;;;4.87;2.53;;;;;;;;;;5071574;28;20448;-75
2021/01/14 14:14:45;;;;;;;5.90;3.20;;;;;;;;;;5062443;28;20464;-75
2021/01/14 14:17:12;;;;;;;4.70;2.73;;;;;;;;;;5064541;28;20614;-74
2021/01/14 14:19:38;;;;;;;4.77;2.90;;;;;;;;;;5068900;28;20507;-75
2021/01/14 14:22:05;;;;;;;5.00;3.33;;;;;;;;;;5076242;28;20569;-74
2021/01/14 14:24:32;;;;;;;4.20;2.87;;;;;;;;;;5070714;28;20486;-74
2021/01/14 14:26:58;;;;;;;3.90;2.73;;;;;;;;;;5076499;28;20483;-74
2021/01/14 14:29:25;;;;;;;3.70;2.67;;;;;;;;;;5070016;28;20898;-74
2021/01/14 14:31:52;;;;;;;4.93;2.80;;;;;;;;;;5072381;28;20457;-74
2021/01/14 14:34:19;;;;;;;4.20;3.37;;;;;;;;;;5073103;28;20460;-74
2021/01/14 14:36:45;;;;;;;4.33;3.00;;;;;;;;;;5076651;28;20477;-74
2021/01/14 14:39:12;;;;;;;2.93;2.70;;;;;;;;;;5071454;28;20981;-75
2021/01/14 14:41:39;;;;;;;4.77;3.20;;;;;;;;;;5077793;28;20453;-74
2021/01/14 14:44:06;;;;;;;4.63;3.37;;;;;;;;;;5074690;28;20453;-74
2021/01/14 14:46:33;;;;;;;6.13;3.60;;;;;;;;;;5070446;28;20464;-74
2021/01/14 14:49:01;;;;;;;4.43;3.30;;;;;;;;;;5073755;28;21155;-73